Magalhaes Barata, Brazil
Current Conditions -  °F | °C
As of 2:00 AM on Thursday 27 Nov 2014 (Local Time) from SBBE Reporting Station
Clear Clear  
Wind Chill: 77°   Ceiling: Unl
Heat Index: 78°   Visibility: 6mi
Dew Point: 73°   Wind: 3mph
Humidity: 89%   Direction: 50°NE
Pressure: 29.8"   Gusts: NA
Location:  0.79°S, 47.6°W
Report Text: SBBE 270500Z 05003KT CAVOK 25/23 Q1009
Loading
Personal Weather Stations






























Interactive Weather Map New forecast layout! Learn more

10-Day Weather Forecast

Advertisements
Track Severe Weather on mobile